createdAt,value
2023-12-12T00:02:03.592Z,6.75
2023-12-12T00:04:30.454Z,5.97
2023-12-12T00:06:58.064Z,7.75
2023-12-12T00:09:24.834Z,10.25
2023-12-12T00:11:51.628Z,13.45
2023-12-12T00:14:19.268Z,12.43
2023-12-12T00:16:46.612Z,9.82
2023-12-12T00:19:13.623Z,8.45
2023-12-12T00:21:40.699Z,16.15
2023-12-12T00:24:07.859Z,12.05
2023-12-12T00:26:34.640Z,7.25
2023-12-12T00:29:01.442Z,9.50
2023-12-12T00:31:28.242Z,6.75
2023-12-12T00:33:56.128Z,9.18
2023-12-12T00:36:23.258Z,11.40
2023-12-12T00:38:50.877Z,6.43
2023-12-12T00:41:17.730Z,9.50
2023-12-12T00:43:45.216Z,12.85
2023-12-12T00:46:12.863Z,9.38
2023-12-12T00:48:40.630Z,8.57
2023-12-12T00:51:10.273Z,6.63
2023-12-12T00:53:37.073Z,7.55
2023-12-12T00:56:04.774Z,5.80
2023-12-12T00:58:31.691Z,9.13
2023-12-12T01:00:59.353Z,4.28
2023-12-12T01:03:26.406Z,8.60
2023-12-12T01:05:53.262Z,5.43
2023-12-12T01:08:20.136Z,10.23
2023-12-12T01:10:46.968Z,5.68
2023-12-12T01:13:13.830Z,6.88
2023-12-12T01:15:41.724Z,7.05
2023-12-12T01:18:08.677Z,7.72
2023-12-12T01:20:35.509Z,7.28
2023-12-12T01:23:02.260Z,6.07
2023-12-12T01:25:30.638Z,4.45
2023-12-12T01:27:57.676Z,12.77
2023-12-12T01:30:25.024Z,6.97
2023-12-12T01:32:52.328Z,6.70
2023-12-12T01:35:19.162Z,3.38
2023-12-12T01:37:45.935Z,5.38
2023-12-12T01:40:13.566Z,4.13
2023-12-12T01:42:40.363Z,4.20
2023-12-12T01:45:07.879Z,12.98
2023-12-12T01:47:35.172Z,8.05
2023-12-12T01:50:02.901Z,3.17
2023-12-12T01:52:30.156Z,7.47
2023-12-12T01:54:58.094Z,7.45
2023-12-12T01:57:25.791Z,4.20
2023-12-12T01:59:53.885Z,6.45
2023-12-12T02:02:21.100Z,2.97
2023-12-12T02:04:51.228Z,3.17
2023-12-12T02:07:19.325Z,4.40
2023-12-12T02:09:46.445Z,5.65
2023-12-12T02:12:13.378Z,4.28
2023-12-12T02:14:41.175Z,2.42
2023-12-12T02:17:08.012Z,3.30
2023-12-12T02:19:35.047Z,5.35
2023-12-12T02:22:02.018Z,5.45
2023-12-12T02:24:28.820Z,2.50
2023-12-12T02:26:56.950Z,8.05
2023-12-12T02:29:23.997Z,1.92
2023-12-12T02:31:50.724Z,4.60
2023-12-12T02:34:20.951Z,5.05
2023-12-12T02:36:48.512Z,6.68
2023-12-12T02:39:15.639Z,10.85
2023-12-12T02:41:43.064Z,4.15
2023-12-12T02:44:10.060Z,6.22
2023-12-12T02:46:37.184Z,5.00
2023-12-12T02:49:04.102Z,3.13
2023-12-12T02:51:32.317Z,5.20
2023-12-12T02:54:02.045Z,9.50
2023-12-12T02:56:35.174Z,3.28
2023-12-12T02:59:02.117Z,3.17
2023-12-12T03:01:29.569Z,2.67
2023-12-12T03:03:56.441Z,5.20
2023-12-12T03:06:23.272Z,3.95
2023-12-12T03:08:50.317Z,5.38
2023-12-12T03:11:17.733Z,3.25
2023-12-12T03:13:44.501Z,4.38
2023-12-12T03:16:11.295Z,4.18
2023-12-12T03:18:38.224Z,8.73
2023-12-12T03:21:05.348Z,6.45
2023-12-12T03:23:32.023Z,4.32
2023-12-12T03:25:58.731Z,8.93
2023-12-12T03:28:28.570Z,5.20
2023-12-12T03:30:57.771Z,8.15
2023-12-12T03:33:30.798Z,4.47
2023-12-12T03:35:57.592Z,3.95
2023-12-12T03:38:25.955Z,2.92
2023-12-12T03:40:52.970Z,3.28
2023-12-12T03:43:20.698Z,7.10
2023-12-12T03:45:47.446Z,2.95
2023-12-12T03:48:15.159Z,7.40
2023-12-12T03:50:42.053Z,9.90
2023-12-12T03:53:08.773Z,5.75
2023-12-12T03:55:35.542Z,8.43
2023-12-12T03:58:02.410Z,6.68
2023-12-12T04:00:29.138Z,3.05
2023-12-12T04:02:55.995Z,4.95
2023-12-12T04:05:23.443Z,2.30
2023-12-12T04:07:50.173Z,3.83
2023-12-12T04:10:16.926Z,3.58
2023-12-12T04:12:43.839Z,4.85
2023-12-12T04:15:10.910Z,3.00
2023-12-12T04:17:39.309Z,2.92
2023-12-12T04:20:07.493Z,2.83
2023-12-12T04:22:34.780Z,3.30
2023-12-12T04:25:01.708Z,1.10
2023-12-12T04:27:28.703Z,2.40
2023-12-12T04:29:55.516Z,1.70
2023-12-12T04:32:22.241Z,3.92
2023-12-12T04:34:49.720Z,2.33
2023-12-12T04:37:17.319Z,1.52
2023-12-12T04:39:44.046Z,1.90
2023-12-12T04:42:13.644Z,1.70
2023-12-12T04:44:42.934Z,3.17
2023-12-12T04:47:09.964Z,2.50
2023-12-12T04:49:37.941Z,1.40
2023-12-12T04:52:05.364Z,3.75
2023-12-12T04:54:32.209Z,1.85
2023-12-12T04:56:59.373Z,1.10
2023-12-12T04:59:26.132Z,3.40
2023-12-12T05:01:53.313Z,5.13
2023-12-12T05:04:20.138Z,10.65
2023-12-12T05:06:48.985Z,1.55
2023-12-12T05:09:15.843Z,3.97
2023-12-12T05:11:42.647Z,2.25
2023-12-12T05:14:12.328Z,4.00
2023-12-12T05:16:39.164Z,2.42
2023-12-12T05:19:06.097Z,1.45
2023-12-12T05:21:33.594Z,7.65
2023-12-12T05:24:01.114Z,3.30
2023-12-12T05:26:28.350Z,2.42
2023-12-12T05:28:55.195Z,1.40
2023-12-12T05:31:25.571Z,1.15
2023-12-12T05:33:52.743Z,2.47
2023-12-12T05:36:19.611Z,1.65
2023-12-12T05:38:46.342Z,1.58
2023-12-12T05:41:13.141Z,1.98
2023-12-12T05:43:39.894Z,0.82
2023-12-12T05:46:06.847Z,3.55
2023-12-12T05:48:33.747Z,1.63
2023-12-12T05:51:00.564Z,2.22
2023-12-12T05:53:28.142Z,5.32
2023-12-12T05:55:57.088Z,1.40
2023-12-12T05:58:24.127Z,2.67
2023-12-12T06:00:52.954Z,8.82
2023-12-12T06:03:19.875Z,3.13
2023-12-12T06:05:46.730Z,1.77
2023-12-12T06:08:13.481Z,4.22
2023-12-12T06:10:41.216Z,1.10
2023-12-12T06:13:08.754Z,2.47
2023-12-12T06:15:35.542Z,0.88
2023-12-12T06:18:02.272Z,0.70
2023-12-12T06:20:31.815Z,1.90
2023-12-12T06:22:58.534Z,0.35
2023-12-12T06:25:25.330Z,1.95
2023-12-12T06:27:52.085Z,0.40
2023-12-12T06:30:18.967Z,0.98
2023-12-12T06:32:47.228Z,0.40
2023-12-12T06:35:15.103Z,1.08
2023-12-12T06:37:42.161Z,2.42
2023-12-12T06:40:13.287Z,4.05
2023-12-12T06:42:40.804Z,0.40
2023-12-12T06:45:11.779Z,1.73
2023-12-12T06:47:38.669Z,3.38
2023-12-12T06:50:06.165Z,1.63
2023-12-12T06:52:36.033Z,2.90
2023-12-12T06:55:02.854Z,2.85
2023-12-12T06:57:29.967Z,2.38
2023-12-12T06:59:57.328Z,3.80
2023-12-12T07:02:24.168Z,1.65
2023-12-12T07:04:51.001Z,0.90
2023-12-12T07:07:17.811Z,1.60
2023-12-12T07:09:44.614Z,1.00
2023-12-12T07:14:56.815Z,2.20
2023-12-12T07:17:23.596Z,2.40
2023-12-12T07:19:50.560Z,2.60
2023-12-12T07:22:17.731Z,4.93
2023-12-12T07:24:44.537Z,2.03
2023-12-12T07:27:11.546Z,7.43
2023-12-12T07:29:39.216Z,2.63
2023-12-12T07:32:07.985Z,4.20
2023-12-12T07:34:34.792Z,3.40
2023-12-12T07:37:01.668Z,1.20
2023-12-12T07:39:28.442Z,0.98
2023-12-12T07:41:55.411Z,1.55
2023-12-12T07:44:22.690Z,1.15
2023-12-12T07:46:49.920Z,1.70
2023-12-12T07:49:17.061Z,1.55
2023-12-12T07:51:44.089Z,4.07
2023-12-12T07:54:11.374Z,1.15
2023-12-12T07:56:38.219Z,2.42
2023-12-12T07:59:04.950Z,2.42
2023-12-12T08:01:32.297Z,0.85
2023-12-12T08:03:59.290Z,0.60
2023-12-12T08:06:28.160Z,1.88
2023-12-12T08:08:55.153Z,1.10
2023-12-12T08:11:25.588Z,0.50
2023-12-12T08:13:52.598Z,3.70
2023-12-12T08:16:19.510Z,1.50
2023-12-12T08:18:47.208Z,6.22
2023-12-12T08:21:14.017Z,2.20
2023-12-12T08:23:43.545Z,1.63
2023-12-12T08:26:13.527Z,3.63
2023-12-12T08:28:40.412Z,2.70
2023-12-12T08:31:07.652Z,3.33
2023-12-12T08:33:35.351Z,1.33
2023-12-12T08:36:02.268Z,2.10
2023-12-12T08:38:30.483Z,8.50
2023-12-12T08:40:57.175Z,10.93
2023-12-12T08:43:24.533Z,5.68
2023-12-12T08:45:55.700Z,9.20
2023-12-12T08:48:24.608Z,10.13
2023-12-12T08:50:51.831Z,10.05
2023-12-12T08:53:18.743Z,7.70
2023-12-12T08:55:46.545Z,6.38
2023-12-12T08:58:13.490Z,7.80
2023-12-12T09:00:40.350Z,10.40
2023-12-12T09:03:07.560Z,9.40
2023-12-12T09:05:37.529Z,7.75
2023-12-12T09:08:04.855Z,10.93
2023-12-12T09:10:32.476Z,15.48
2023-12-12T09:12:59.326Z,9.93
2023-12-12T09:15:26.158Z,16.98
2023-12-12T09:18:05.775Z,13.77
2023-12-12T09:20:39.815Z,9.48
2023-12-12T09:23:06.568Z,15.77
2023-12-12T09:25:33.549Z,9.98
2023-12-12T09:28:00.376Z,10.60
2023-12-12T09:30:28.145Z,11.27
2023-12-12T09:32:55.241Z,16.98
2023-12-12T09:35:22.206Z,20.55
2023-12-12T09:37:48.887Z,10.13
2023-12-12T09:40:15.707Z,10.57
2023-12-12T09:42:42.545Z,10.88
2023-12-12T09:45:16.546Z,19.92
2023-12-12T09:47:45.944Z,11.85
2023-12-12T09:50:13.679Z,12.95
2023-12-12T09:52:40.902Z,11.98
2023-12-12T09:55:08.151Z,14.32
2023-12-12T09:57:35.273Z,11.77
2023-12-12T10:00:02.369Z,12.98
2023-12-12T10:02:35.804Z,12.43
2023-12-12T10:05:06.195Z,18.98
2023-12-12T10:07:35.168Z,18.38
2023-12-12T10:10:05.950Z,15.02
2023-12-12T10:12:32.809Z,22.48
2023-12-12T10:14:59.823Z,18.42
2023-12-12T10:17:28.325Z,22.02
2023-12-12T10:20:01.450Z,24.88
2023-12-12T10:22:35.188Z,24.42
2023-12-12T10:25:13.167Z,17.65
2023-12-12T10:27:44.735Z,18.95
2023-12-12T10:30:13.855Z,18.58
2023-12-12T10:32:42.214Z,14.15
2023-12-12T10:35:09.203Z,20.15
2023-12-12T10:37:36.174Z,15.60
2023-12-12T10:40:24.140Z,16.15
2023-12-12T10:42:52.128Z,11.45
2023-12-12T10:45:19.481Z,16.23
2023-12-12T10:47:48.300Z,14.88
2023-12-12T10:50:16.992Z,15.40
2023-12-12T10:52:45.573Z,16.08
2023-12-12T10:55:14.463Z,12.35
2023-12-12T10:57:45.961Z,21.77
2023-12-12T11:00:18.305Z,15.38
2023-12-12T11:02:47.493Z,12.93
2023-12-12T11:05:16.258Z,12.68
2023-12-12T11:07:49.573Z,13.00
2023-12-12T11:10:19.996Z,14.70
2023-12-12T11:12:52.180Z,15.82
2023-12-12T11:15:20.630Z,22.60
2023-12-12T11:17:48.775Z,12.68
2023-12-12T11:20:18.323Z,24.42
2023-12-12T11:22:52.356Z,16.60
2023-12-12T11:25:24.099Z,8.18
2023-12-12T11:27:58.501Z,20.63
2023-12-12T11:30:46.474Z,18.13
2023-12-12T11:33:13.493Z,12.70
2023-12-12T11:35:40.455Z,15.57
2023-12-12T11:38:26.666Z,17.42
2023-12-12T11:41:10.467Z,6.28
2023-12-12T11:43:37.431Z,4.88
2023-12-12T11:46:23.251Z,5.45
2023-12-12T11:48:50.606Z,3.00
2023-12-12T11:51:35.553Z,3.70
2023-12-12T11:54:18.065Z,4.00
2023-12-12T11:56:44.823Z,3.05
2023-12-12T11:59:11.784Z,4.97
2023-12-12T12:01:38.744Z,1.58
2023-12-12T12:04:05.613Z,5.32
2023-12-12T12:06:32.336Z,4.63
2023-12-12T12:08:59.161Z,4.65
2023-12-12T12:11:37.424Z,7.43
2023-12-12T12:14:04.734Z,4.13
2023-12-12T12:16:31.575Z,4.00
2023-12-12T12:18:58.514Z,6.55
2023-12-12T12:21:26.723Z,2.55
2023-12-12T12:23:54.120Z,8.27
2023-12-12T12:26:21.125Z,2.97
2023-12-12T12:28:48.688Z,2.33
2023-12-12T12:31:28.801Z,2.80
2023-12-12T12:33:55.679Z,3.50
2023-12-12T12:36:22.923Z,1.63
2023-12-12T12:38:49.659Z,5.72
2023-12-12T12:41:25.947Z,6.43
2023-12-12T12:43:53.948Z,4.60
2023-12-12T12:46:20.808Z,5.80
2023-12-12T12:48:47.608Z,2.75
2023-12-12T12:51:14.463Z,3.05
2023-12-12T12:53:41.792Z,8.90
2023-12-12T12:56:09.228Z,3.17
2023-12-12T12:58:36.058Z,6.32
2023-12-12T13:01:02.967Z,5.10
2023-12-12T13:03:32.305Z,1.42
2023-12-12T13:05:59.916Z,2.53
2023-12-12T13:08:26.742Z,4.22
2023-12-12T13:10:53.510Z,5.30
2023-12-12T13:13:21.539Z,4.97
2023-12-12T13:15:49.652Z,3.00
2023-12-12T13:18:19.125Z,5.38
2023-12-12T13:20:47.339Z,3.30
2023-12-12T13:23:14.228Z,5.20
2023-12-12T13:25:42.151Z,2.17
2023-12-12T13:28:10.335Z,5.65
2023-12-12T13:30:37.667Z,7.60
2023-12-12T13:33:07.197Z,3.17
2023-12-12T13:35:37.352Z,5.22
2023-12-12T13:38:05.172Z,2.08
2023-12-12T13:40:33.298Z,6.10
2023-12-12T13:43:00.403Z,4.00
2023-12-12T13:45:27.171Z,5.15
2023-12-12T13:47:54.068Z,5.85
2023-12-12T13:50:22.559Z,4.03
2023-12-12T13:52:49.458Z,2.92
2023-12-12T13:55:16.255Z,3.95
2023-12-12T13:57:43.025Z,2.60
2023-12-12T14:00:11.321Z,1.77
2023-12-12T14:02:38.742Z,1.77
2023-12-12T14:05:06.832Z,2.78
2023-12-12T14:07:34.173Z,6.28
2023-12-12T14:10:02.196Z,3.38
2023-12-12T14:12:29.059Z,1.77
2023-12-12T14:14:59.909Z,0.47
2023-12-12T14:17:27.282Z,2.67
2023-12-12T14:19:54.279Z,4.43
2023-12-12T14:22:21.045Z,2.92
2023-12-12T14:24:51.081Z,3.13
2023-12-12T14:27:18.053Z,0.70
2023-12-12T14:29:45.628Z,3.95
2023-12-12T14:32:12.385Z,1.85
2023-12-12T14:34:40.346Z,1.80
2023-12-12T14:37:07.119Z,1.65
2023-12-12T14:39:33.870Z,1.65
2023-12-12T14:42:00.660Z,2.13
2023-12-12T14:44:27.486Z,1.90
2023-12-12T14:46:55.078Z,3.60
2023-12-12T14:49:22.331Z,2.30
2023-12-12T14:51:49.065Z,3.22
2023-12-12T14:54:16.087Z,1.73
2023-12-12T14:56:43.846Z,4.90
2023-12-12T14:59:11.325Z,2.28
2023-12-12T15:01:38.186Z,1.25
2023-12-12T15:04:06.458Z,1.45
2023-12-12T15:06:33.633Z,2.65
2023-12-12T15:09:00.816Z,2.72
2023-12-12T15:11:27.553Z,2.53
2023-12-12T15:13:55.323Z,2.92
2023-12-12T15:16:22.161Z,1.58
2023-12-12T15:18:48.988Z,5.28
2023-12-12T15:21:15.824Z,4.32
2023-12-12T15:23:42.886Z,2.25
2023-12-12T15:26:09.758Z,10.50
2023-12-12T15:28:36.642Z,3.13
2023-12-12T15:31:03.748Z,3.28
2023-12-12T15:33:33.025Z,7.53
2023-12-12T15:36:05.155Z,4.97
2023-12-12T15:38:32.004Z,3.92
2023-12-12T15:40:58.785Z,7.75
2023-12-12T15:43:25.551Z,3.75
2023-12-12T15:45:53.237Z,2.15
2023-12-12T15:48:20.580Z,4.40
2023-12-12T15:50:47.543Z,7.28
2023-12-12T15:53:14.321Z,5.43
2023-12-12T15:55:41.796Z,4.78
2023-12-12T15:58:09.178Z,7.65
2023-12-12T16:00:39.777Z,8.48
2023-12-12T16:03:10.739Z,7.97
2023-12-12T16:05:37.709Z,5.43
2023-12-12T16:08:05.936Z,3.95
2023-12-12T16:10:32.707Z,3.42
2023-12-12T16:12:59.512Z,6.32
2023-12-12T16:15:27.292Z,7.90
2023-12-12T16:17:54.158Z,15.75
2023-12-12T16:20:21.201Z,6.95
2023-12-12T16:22:48.078Z,7.95
2023-12-12T16:25:15.040Z,10.05
2023-12-12T16:27:49.736Z,7.55
2023-12-12T16:30:18.591Z,12.05
2023-12-12T16:32:45.375Z,5.68
2023-12-12T16:35:12.728Z,7.30
2023-12-12T16:37:45.268Z,8.40
2023-12-12T16:42:39.268Z,9.60
2023-12-12T16:45:06.701Z,16.90
2023-12-12T16:47:35.813Z,8.38
2023-12-12T16:50:04.244Z,8.63
2023-12-12T16:52:31.524Z,10.23
2023-12-12T16:54:58.548Z,9.15
2023-12-12T16:57:25.296Z,9.18
2023-12-12T16:59:52.078Z,12.48
2023-12-12T17:02:18.860Z,7.78
2023-12-12T17:04:46.813Z,6.25
2023-12-12T17:07:13.731Z,8.07
2023-12-12T17:09:41.986Z,7.00
2023-12-12T17:12:08.764Z,13.00
2023-12-12T17:14:35.634Z,18.73
2023-12-12T17:17:02.877Z,9.75
2023-12-12T17:19:29.781Z,11.73
2023-12-12T17:21:57.754Z,10.25
2023-12-12T17:24:24.571Z,13.18
2023-12-12T17:26:51.471Z,7.60
2023-12-12T17:29:18.257Z,16.63
2023-12-12T17:31:45.986Z,9.15
2023-12-12T17:34:13.671Z,11.30
2023-12-12T17:36:40.735Z,21.50
2023-12-12T17:39:08.181Z,12.15
2023-12-12T17:41:35.367Z,7.28
2023-12-12T17:44:02.203Z,14.65
2023-12-12T17:46:29.012Z,10.30
2023-12-12T17:49:01.592Z,6.75
2023-12-12T17:51:28.469Z,8.25
2023-12-12T17:53:55.259Z,9.70
2023-12-12T17:56:24.359Z,7.40
2023-12-12T17:58:51.313Z,18.13
2023-12-12T18:01:18.141Z,20.00
2023-12-12T18:03:45.544Z,9.25
2023-12-12T18:06:12.406Z,16.33
2023-12-12T18:08:41.998Z,8.82
2023-12-12T18:11:08.910Z,12.38
2023-12-12T18:13:36.882Z,11.57
2023-12-12T18:16:03.915Z,16.92
2023-12-12T18:18:32.100Z,12.50
2023-12-12T18:20:58.969Z,16.33
2023-12-12T18:23:26.212Z,15.63
2023-12-12T18:25:53.099Z,16.02
2023-12-12T18:28:19.963Z,14.45
2023-12-12T18:30:50.074Z,12.95
2023-12-12T18:33:17.091Z,12.70
2023-12-12T18:35:43.920Z,12.77
2023-12-12T18:38:10.990Z,16.48
2023-12-12T18:40:37.991Z,14.88
2023-12-12T18:43:05.825Z,15.95
2023-12-12T18:45:32.941Z,17.33
2023-12-12T18:48:00.396Z,8.52
2023-12-12T18:50:27.295Z,6.30
2023-12-12T18:52:54.861Z,9.25
2023-12-12T18:55:22.092Z,6.88
2023-12-12T18:57:49.697Z,16.42
2023-12-12T19:00:16.745Z,6.68
2023-12-12T19:02:44.085Z,11.27
2023-12-12T19:05:13.413Z,6.30
2023-12-12T19:07:41.887Z,6.72
2023-12-12T19:10:11.170Z,12.07
2023-12-12T19:12:46.844Z,6.28
2023-12-12T19:15:17.206Z,9.77
2023-12-12T19:17:44.212Z,10.77
2023-12-12T19:20:12.903Z,15.48
2023-12-12T19:22:40.594Z,8.77
2023-12-12T19:25:08.381Z,11.02
2023-12-12T19:27:36.245Z,15.05
2023-12-12T19:30:05.244Z,9.38
2023-12-12T19:32:36.639Z,12.20
2023-12-12T19:35:05.138Z,9.40
2023-12-12T19:37:32.335Z,10.80
2023-12-12T19:40:00.222Z,12.50
2023-12-12T19:42:29.897Z,14.10
2023-12-12T19:44:57.225Z,17.52
2023-12-12T19:47:24.007Z,11.45
2023-12-12T19:49:53.619Z,10.77
2023-12-12T19:52:23.595Z,13.20
2023-12-12T19:54:51.545Z,13.32
2023-12-12T19:57:18.500Z,9.73
2023-12-12T19:59:51.607Z,8.90
2023-12-12T20:02:18.540Z,11.52
2023-12-12T20:04:45.331Z,8.90
2023-12-12T20:07:23.239Z,6.88
2023-12-12T20:09:53.982Z,15.85
2023-12-12T20:12:25.629Z,11.35
2023-12-12T20:14:52.511Z,11.07
2023-12-12T20:17:19.433Z,10.20
2023-12-12T20:19:46.254Z,9.27
2023-12-12T20:22:16.574Z,13.70
2023-12-12T20:24:46.580Z,7.65
2023-12-12T20:27:13.663Z,5.68
2023-12-12T20:29:40.699Z,10.23
2023-12-12T20:32:11.868Z,7.90
2023-12-12T20:34:38.876Z,2.65
2023-12-12T20:37:06.012Z,8.70
2023-12-12T20:39:32.885Z,5.47
2023-12-12T20:42:05.225Z,8.15
2023-12-12T20:44:32.017Z,7.75
2023-12-12T20:46:58.818Z,9.27
2023-12-12T20:49:25.760Z,6.18
2023-12-12T20:51:53.987Z,7.65
2023-12-12T20:54:24.829Z,12.50
2023-12-12T20:59:53.275Z,6.28
2023-12-12T21:02:32.302Z,5.20
2023-12-12T21:05:00.701Z,6.32
2023-12-12T21:07:51.174Z,4.40
2023-12-12T21:13:20.527Z,3.38
2023-12-12T21:15:48.550Z,4.00
2023-12-12T21:18:15.594Z,2.83
2023-12-12T21:20:42.397Z,5.93
2023-12-12T21:23:09.624Z,5.22
2023-12-12T21:25:36.568Z,8.38
2023-12-12T21:28:04.440Z,3.92
2023-12-12T21:30:31.904Z,5.82
2023-12-12T21:32:59.340Z,4.80
2023-12-12T21:35:26.701Z,4.35
2023-12-12T21:37:53.493Z,3.33
2023-12-12T21:40:20.430Z,4.88
2023-12-12T21:42:53.559Z,15.32
2023-12-12T21:45:20.536Z,4.93
2023-12-12T21:47:48.196Z,4.93
2023-12-12T21:50:15.143Z,6.13
2023-12-12T21:52:42.537Z,6.75
2023-12-12T21:55:11.023Z,10.30
2023-12-12T21:57:37.942Z,7.20
2023-12-12T22:00:08.355Z,5.07
2023-12-12T22:02:35.113Z,4.45
2023-12-12T22:05:01.867Z,2.58
2023-12-12T22:07:28.746Z,7.72
2023-12-12T22:09:55.608Z,4.07
2023-12-12T22:12:22.460Z,5.78
2023-12-12T22:14:50.332Z,4.35
2023-12-12T22:17:17.920Z,3.45
2023-12-12T22:19:54.754Z,3.72
2023-12-12T22:22:29.319Z,8.82
2023-12-12T22:24:56.164Z,7.70
2023-12-12T22:27:22.946Z,3.88
2023-12-12T22:29:49.907Z,4.18
2023-12-12T22:32:16.667Z,5.72
2023-12-12T22:34:43.464Z,7.20
2023-12-12T22:37:12.759Z,4.68
2023-12-12T22:39:39.528Z,2.35
2023-12-12T22:42:13.834Z,2.15
2023-12-12T22:44:40.683Z,3.53
2023-12-12T22:47:10.623Z,5.25
2023-12-12T22:49:37.583Z,3.88
2023-12-12T22:52:04.774Z,4.65
2023-12-12T22:54:31.583Z,5.68
2023-12-12T22:56:58.299Z,3.15
2023-12-12T22:59:25.631Z,2.50
2023-12-12T23:01:52.498Z,7.72
2023-12-12T23:04:19.407Z,1.88
2023-12-12T23:06:46.871Z,3.78
2023-12-12T23:09:13.668Z,2.70
2023-12-12T23:11:40.761Z,4.97
2023-12-12T23:14:07.745Z,3.58
2023-12-12T23:16:35.538Z,6.25
2023-12-12T23:19:02.904Z,3.28
2023-12-12T23:21:29.962Z,3.20
2023-12-12T23:23:56.815Z,3.95
2023-12-12T23:26:23.704Z,4.40
2023-12-12T23:28:53.224Z,5.03
2023-12-12T23:31:20.163Z,2.95
2023-12-12T23:33:47.345Z,4.68
2023-12-12T23:36:14.271Z,2.88
2023-12-12T23:38:40.987Z,3.78
2023-12-12T23:41:07.831Z,2.28
2023-12-12T23:43:36.529Z,4.15
2023-12-12T23:46:03.771Z,3.28
2023-12-12T23:48:30.880Z,4.35
2023-12-12T23:50:57.946Z,14.38
2023-12-12T23:53:25.008Z,5.47
2023-12-12T23:55:52.192Z,3.83
2023-12-12T23:58:19.070Z,4.88
